createdAt,value
2024-03-12T00:00:53.158Z,100219.41
2024-03-12T00:05:55.102Z,100211.34
2024-03-12T00:10:58.603Z,100231.75
2024-03-12T00:16:00.353Z,100241.66
2024-03-12T00:21:02.039Z,100257.00
2024-03-12T00:26:05.483Z,100263.09
2024-03-12T00:31:07.338Z,100271.38
2024-03-12T00:36:09.398Z,100282.88
2024-03-12T00:41:12.446Z,100288.97
2024-03-12T00:46:14.145Z,100296.34
2024-03-12T00:51:15.780Z,100305.06
2024-03-12T00:56:18.737Z,100314.13
2024-03-12T01:01:20.480Z,100310.38
2024-03-12T01:06:22.222Z,100322.59
2024-03-12T01:11:25.423Z,100321.19
2024-03-12T01:16:27.067Z,100316.75
2024-03-12T01:21:28.782Z,100323.09
2024-03-12T01:26:31.966Z,100318.47
2024-03-12T01:31:33.663Z,100324.19
2024-03-12T01:36:35.358Z,100328.63
2024-03-12T01:41:38.396Z,100330.34
2024-03-12T01:46:55.062Z,100331.75
2024-03-12T01:51:56.798Z,100331.44
2024-03-12T01:56:59.793Z,100321.75
2024-03-12T02:02:01.577Z,100334.38
2024-03-12T02:07:03.423Z,100258.25
2024-03-12T02:12:07.139Z,100347.41
2024-03-12T02:17:08.748Z,100347.69
2024-03-12T02:22:10.441Z,100351.97
2024-03-12T02:27:13.736Z,100354.75
2024-03-12T02:32:15.582Z,100358.06
2024-03-12T02:37:17.498Z,100357.38
2024-03-12T02:42:20.568Z,100359.16
2024-03-12T02:47:22.242Z,100283.81
2024-03-12T02:52:23.948Z,100371.22
2024-03-12T02:57:26.962Z,100384.84
2024-03-12T03:02:28.631Z,100392.06
2024-03-12T03:07:30.301Z,100389.34
2024-03-12T03:12:33.690Z,100396.50
2024-03-12T03:17:35.350Z,100392.66
2024-03-12T03:22:36.972Z,100387.63
2024-03-12T03:27:40.515Z,100391.25
2024-03-12T03:32:42.375Z,100401.28
2024-03-12T03:37:44.690Z,100395.91
2024-03-12T03:42:47.720Z,100407.97
2024-03-12T03:47:49.374Z,100414.31
2024-03-12T03:52:51.067Z,100415.03
2024-03-12T03:57:54.255Z,100417.41
2024-03-12T04:02:55.875Z,100421.97
2024-03-12T04:07:57.509Z,100435.22
2024-03-12T04:13:00.925Z,100425.19
2024-03-12T04:18:02.723Z,100452.53
2024-03-12T04:23:04.707Z,100458.50
2024-03-12T04:28:08.086Z,100460.78
2024-03-12T04:33:09.923Z,100469.50
2024-03-12T04:38:12.627Z,100470.34
2024-03-12T04:43:17.086Z,100492.09
2024-03-12T04:48:18.762Z,100489.34
2024-03-12T04:53:23.227Z,100490.31
2024-03-12T04:58:26.537Z,100502.00
2024-03-12T05:03:28.134Z,100514.31
2024-03-12T05:08:29.788Z,100516.72
2024-03-12T05:13:32.952Z,100528.44
2024-03-12T05:18:34.666Z,100533.34
2024-03-12T05:23:36.302Z,100535.22
2024-03-12T05:28:39.610Z,100554.38
2024-03-12T05:33:41.224Z,100557.94
2024-03-12T05:38:43.028Z,100558.91
2024-03-12T05:43:48.172Z,100569.53
2024-03-12T05:48:52.186Z,100564.16
2024-03-12T05:53:54.312Z,100574.41
2024-03-12T05:58:57.237Z,100489.44
2024-03-12T06:03:58.913Z,100584.13
2024-03-12T06:09:00.593Z,100597.50
2024-03-12T06:14:04.549Z,100602.53
2024-03-12T06:19:06.395Z,100614.47
2024-03-12T06:24:08.726Z,100620.19
2024-03-12T06:29:12.117Z,100624.13
2024-03-12T06:34:13.879Z,100634.41
2024-03-12T06:39:15.749Z,100636.91
2024-03-12T06:44:18.705Z,100651.75
2024-03-12T06:49:20.829Z,100633.88
2024-03-12T06:54:22.472Z,100660.31
2024-03-12T06:59:25.442Z,100666.66
2024-03-12T07:04:27.104Z,100672.84
2024-03-12T07:09:28.764Z,100671.06
2024-03-12T07:14:31.733Z,100657.75
2024-03-12T07:19:33.372Z,100690.41
2024-03-12T07:24:35.375Z,100668.25
2024-03-12T07:29:38.542Z,100700.47
2024-03-12T07:34:40.286Z,100703.34
2024-03-12T07:39:41.953Z,100710.00
2024-03-12T07:44:45.045Z,100719.31
2024-03-12T07:49:46.633Z,100691.41
2024-03-12T07:54:48.682Z,100720.38
2024-03-12T07:59:51.757Z,100720.06
2024-03-12T08:04:53.349Z,100719.59
2024-03-12T08:09:54.980Z,100723.16
2024-03-12T08:14:58.156Z,100731.34
2024-03-12T08:19:59.793Z,100739.81
2024-03-12T08:25:01.454Z,100744.22
2024-03-12T08:30:05.891Z,100736.59
2024-03-12T08:35:08.492Z,100750.53
2024-03-12T08:40:10.778Z,100750.19
2024-03-12T08:45:13.760Z,100761.66
2024-03-12T08:50:15.836Z,100670.66
2024-03-12T08:55:17.711Z,100747.03
2024-03-12T09:00:21.127Z,100686.63
2024-03-12T09:05:22.915Z,100776.56
2024-03-12T09:10:24.645Z,100786.84
2024-03-12T09:15:27.813Z,100784.34
2024-03-12T09:20:29.437Z,100781.13
2024-03-12T09:25:31.167Z,100802.34
2024-03-12T09:30:34.516Z,100802.38
2024-03-12T09:35:36.288Z,100803.13
2024-03-12T09:40:38.110Z,100805.16
2024-03-12T09:45:41.300Z,100808.78
2024-03-12T09:50:43.369Z,100759.66
2024-03-12T09:55:45.445Z,100813.84
2024-03-12T10:00:48.544Z,100823.22
2024-03-12T10:05:51.486Z,100822.13
2024-03-12T10:10:53.147Z,100843.91
2024-03-12T10:15:58.485Z,100810.66
2024-03-12T10:21:01.374Z,100824.19
2024-03-12T10:26:07.973Z,100827.69
2024-03-12T10:31:13.027Z,100833.91
2024-03-12T10:36:29.281Z,100813.47
2024-03-12T10:41:31.063Z,100823.06
2024-03-12T10:46:34.623Z,100842.31
2024-03-12T10:51:37.167Z,100825.44
2024-03-12T10:56:39.550Z,100826.25
2024-03-12T11:01:43.139Z,100826.47
2024-03-12T11:06:46.987Z,100833.66
2024-03-12T11:11:48.611Z,100835.81
2024-03-12T11:16:53.226Z,100836.75
2024-03-12T11:22:00.860Z,100835.38
2024-03-12T11:27:03.404Z,100839.38
2024-03-12T11:32:09.601Z,100842.88
2024-03-12T11:37:15.648Z,100845.59
2024-03-12T11:42:17.423Z,100839.41
2024-03-12T11:47:31.488Z,100849.59
2024-03-12T11:52:33.561Z,100851.97
2024-03-12T11:57:35.305Z,100846.84
2024-03-12T12:02:42.640Z,100849.38
2024-03-12T12:07:44.299Z,100852.72
2024-03-12T12:12:46.035Z,100845.53
2024-03-12T12:17:49.200Z,100844.06
2024-03-12T12:22:50.866Z,100847.16
2024-03-12T12:27:53.356Z,100843.56
2024-03-12T12:32:56.914Z,100836.97
2024-03-12T12:37:58.920Z,100829.81
2024-03-12T12:43:00.593Z,100819.78
2024-03-12T12:48:04.483Z,100817.78
2024-03-12T12:53:06.155Z,100817.59
2024-03-12T12:58:08.227Z,100810.31
2024-03-12T13:03:15.925Z,100791.41
2024-03-12T13:08:21.923Z,100808.72
2024-03-12T13:13:23.711Z,100797.97
2024-03-12T13:18:26.942Z,100802.09
2024-03-12T13:23:28.633Z,100795.00
2024-03-12T13:28:30.469Z,100805.41
2024-03-12T13:33:33.614Z,100808.13
2024-03-12T13:38:35.434Z,100815.50
2024-03-12T13:43:37.944Z,100808.16
2024-03-12T13:48:40.807Z,100804.88
2024-03-12T13:53:42.822Z,100806.97
2024-03-12T13:58:45.619Z,100806.22
2024-03-12T14:03:50.179Z,100806.88
2024-03-12T14:08:51.814Z,100803.13
2024-03-12T14:13:53.872Z,100805.63
2024-03-12T14:18:57.168Z,100804.19
2024-03-12T14:23:58.809Z,100805.31
2024-03-12T14:29:00.418Z,100808.78
2024-03-12T14:34:03.663Z,100721.53
2024-03-12T14:39:05.430Z,100800.22
2024-03-12T14:44:07.089Z,100796.88
2024-03-12T14:49:10.278Z,100729.50
2024-03-12T14:54:11.994Z,100796.13
2024-03-12T14:59:13.616Z,100798.78
2024-03-12T15:04:16.622Z,100805.13
2024-03-12T15:09:18.264Z,100796.19
2024-03-12T15:14:19.927Z,100796.19
2024-03-12T15:19:23.411Z,100787.84
2024-03-12T15:24:25.076Z,100781.84
2024-03-12T15:29:26.728Z,100778.56
2024-03-12T15:34:30.040Z,100764.75
2024-03-12T15:39:31.739Z,100767.34
2024-03-12T15:44:33.403Z,100764.78
2024-03-12T15:49:36.399Z,100781.06
2024-03-12T15:54:39.219Z,100629.94
2024-03-12T15:59:41.058Z,100766.06
2024-03-12T16:04:44.121Z,100766.78
2024-03-12T16:09:45.827Z,100765.63
2024-03-12T16:14:47.607Z,100762.53
2024-03-12T16:19:50.847Z,100768.34
2024-03-12T16:24:52.515Z,100762.84
2024-03-12T16:29:54.202Z,100766.56
2024-03-12T16:34:57.519Z,100742.13
2024-03-12T16:39:59.178Z,100754.50
2024-03-12T16:45:01.039Z,100762.63
2024-03-12T16:50:04.483Z,100760.63
2024-03-12T16:55:07.554Z,100765.06
2024-03-12T17:00:10.417Z,100761.25
2024-03-12T17:05:15.482Z,100767.44
2024-03-12T17:10:17.896Z,100774.44
2024-03-12T17:15:20.407Z,100763.66
2024-03-12T17:20:24.185Z,100768.22
2024-03-12T17:25:26.438Z,100770.66
2024-03-12T17:30:28.524Z,100771.75
2024-03-12T17:35:32.250Z,100777.91
2024-03-12T17:40:34.574Z,100780.94
2024-03-12T17:45:36.639Z,100699.38
2024-03-12T17:50:40.397Z,100782.75
2024-03-12T17:55:42.581Z,100796.28
2024-03-12T18:00:44.893Z,100800.38
2024-03-12T18:05:49.380Z,100798.84
2024-03-12T18:10:56.881Z,100806.03
2024-03-12T18:15:58.787Z,100807.81
2024-03-12T18:21:02.062Z,100802.94
2024-03-12T18:26:04.024Z,100807.84
2024-03-12T18:31:05.649Z,100810.13
2024-03-12T18:36:09.482Z,100810.22
2024-03-12T18:41:11.288Z,100809.88
2024-03-12T18:46:12.966Z,100808.56
2024-03-12T18:51:16.579Z,100810.97
2024-03-12T18:56:19.084Z,100806.31
2024-03-12T19:01:23.273Z,100802.09
2024-03-12T19:06:27.849Z,100809.53
2024-03-12T19:11:30.139Z,100802.22
2024-03-12T19:16:34.433Z,100792.78
2024-03-12T19:21:38.182Z,100788.47
2024-03-12T19:26:39.823Z,100794.19
2024-03-12T19:31:42.114Z,100788.47
2024-03-12T19:36:46.141Z,100782.34
2024-03-12T19:41:48.462Z,100778.13
2024-03-12T19:46:50.686Z,100760.44
2024-03-12T19:51:54.156Z,100775.75
2024-03-12T19:56:55.824Z,100769.88
2024-03-12T20:01:57.739Z,100770.13
2024-03-12T20:07:01.280Z,100763.19
2024-03-12T20:12:03.181Z,100761.00
2024-03-12T20:17:05.118Z,100760.28
2024-03-12T20:22:08.209Z,100754.28
2024-03-12T20:27:10.330Z,100748.19
2024-03-12T20:32:11.995Z,100752.38
2024-03-12T20:37:15.862Z,100752.50
2024-03-12T20:42:17.657Z,100746.41
2024-03-12T20:47:19.283Z,100748.31
2024-03-12T20:52:22.325Z,100741.38
2024-03-12T20:57:24.078Z,100741.47
2024-03-12T21:02:25.850Z,100735.34
2024-03-12T21:07:28.816Z,100726.88
2024-03-12T21:12:30.640Z,100739.09
2024-03-12T21:17:32.324Z,100740.03
2024-03-12T21:22:35.290Z,100730.34
2024-03-12T21:27:37.055Z,100727.00
2024-03-12T21:32:38.810Z,100726.72
2024-03-12T21:37:42.117Z,100724.94
2024-03-12T21:42:44.153Z,100718.50
2024-03-12T21:47:48.635Z,100721.59
2024-03-12T21:52:52.203Z,100729.94
2024-03-12T21:57:53.873Z,100731.84
2024-03-12T22:02:55.524Z,100718.44
2024-03-12T22:07:58.542Z,100719.44
2024-03-12T22:13:00.184Z,100712.63
2024-03-12T22:18:01.863Z,100708.66
2024-03-12T22:23:04.896Z,100706.41
2024-03-12T22:28:06.621Z,100707.72
2024-03-12T22:33:08.354Z,100703.06
2024-03-12T22:38:12.158Z,100709.97
2024-03-12T22:43:14.579Z,100702.81
2024-03-12T22:48:16.431Z,100690.72
2024-03-12T22:53:22.810Z,100698.97
2024-03-12T22:58:25.015Z,100701.97
2024-03-12T23:03:27.255Z,100636.41
2024-03-12T23:08:30.541Z,100707.72
2024-03-12T23:13:32.229Z,100632.56
2024-03-12T23:18:35.624Z,100681.25
2024-03-12T23:23:38.628Z,100697.41
2024-03-12T23:28:40.282Z,100686.78
2024-03-12T23:33:41.935Z,100678.78
2024-03-12T23:38:44.946Z,100677.59
2024-03-12T23:43:46.765Z,100681.63
2024-03-12T23:48:48.483Z,100681.41
2024-03-12T23:53:51.442Z,100689.31
2024-03-12T23:58:53.079Z,100701.50
